New Hartford, Connecticut
Current Conditions -  °F | °C
As of 7:51 PM on Friday 24 Oct 2014 (Local Time) from KBDL Reporting Station
Broken Clouds Broken Clouds  
Wind Chill: 11°   Ceiling: 3700
Heat Index: 11°   Visibility: 10mi
Dew Point:   Wind: 8mph
Humidity: 69%   Direction: 330°NNW
Pressure: 29.77"   Gusts: NA
Location:  41.88°N, 72.98°W
Report Text: KBDL 242351Z 33007KT 10SM BKN037 BKN130 11/06 A2977 RMK AO2 SLP082 T01110056 10139 20111 51008
Loading
Personal Weather Stations






























Interactive Weather Map
Tropical Storm Tracking
New forecast layout! Learn more

10-Day Weather Forecast

Advertisements
Track Severe Weather on mobile